createdAt,value
2022-09-25T00:01:03.303Z,13.48
2022-09-25T00:03:30.938Z,13.30
2022-09-25T00:06:20.287Z,14.35
2022-09-25T00:08:47.840Z,14.75
2022-09-25T00:11:18.334Z,15.20
2022-09-25T00:13:46.100Z,14.70
2022-09-25T00:16:18.804Z,16.23
2022-09-25T00:19:04.581Z,14.80
2022-09-25T00:21:32.704Z,13.88
2022-09-25T00:24:00.992Z,14.73
2022-09-25T00:26:29.936Z,14.75
2022-09-25T00:28:57.780Z,14.48
2022-09-25T00:31:25.493Z,15.45
2022-09-25T00:33:53.108Z,13.88
2022-09-25T00:36:20.684Z,14.05
2022-09-25T00:38:48.906Z,15.27
2022-09-25T00:41:17.933Z,16.10
2022-09-25T00:43:50.579Z,15.73
2022-09-25T00:46:36.336Z,15.27
2022-09-25T00:49:13.411Z,15.40
2022-09-25T00:51:43.268Z,14.68
2022-09-25T00:54:16.465Z,14.98
2022-09-25T00:56:46.170Z,15.30
2022-09-25T00:59:18.146Z,14.65
2022-09-25T01:01:46.763Z,15.98
2022-09-25T01:04:14.690Z,15.35
2022-09-25T01:06:41.868Z,14.90
2022-09-25T01:09:08.933Z,14.13
2022-09-25T01:11:35.823Z,14.45
2022-09-25T01:14:05.980Z,16.60
2022-09-25T01:16:43.430Z,15.30
2022-09-25T01:19:53.138Z,14.60
2022-09-25T01:22:40.301Z,14.50
2022-09-25T01:25:28.565Z,15.32
2022-09-25T01:28:34.033Z,12.52
2022-09-25T01:31:15.561Z,13.30
2022-09-25T01:33:52.294Z,14.90
2022-09-25T01:36:47.598Z,15.43
2022-09-25T01:39:25.682Z,15.27
2022-09-25T01:42:21.881Z,15.20
2022-09-25T01:45:05.014Z,15.45
2022-09-25T01:47:37.917Z,15.43
2022-09-25T01:50:13.955Z,14.70
2022-09-25T01:52:50.205Z,14.07
2022-09-25T01:55:24.243Z,15.93
2022-09-25T01:58:00.438Z,15.63
2022-09-25T02:00:27.867Z,13.93
2022-09-25T02:03:06.438Z,15.40
2022-09-25T02:05:48.701Z,14.77
2022-09-25T02:08:26.985Z,15.05
2022-09-25T02:13:52.245Z,15.70
2022-09-25T02:16:36.230Z,14.57
2022-09-25T02:19:23.972Z,15.63
2022-09-25T02:22:07.695Z,15.02
2022-09-25T02:24:48.192Z,14.93
2022-09-25T02:27:15.817Z,15.20
2022-09-25T02:29:42.826Z,15.80
2022-09-25T02:32:13.585Z,15.57
2022-09-25T02:34:40.971Z,15.75
2022-09-25T02:37:15.933Z,15.82
2022-09-25T02:39:47.876Z,15.38
2022-09-25T02:42:44.995Z,15.68
2022-09-25T02:45:39.748Z,16.02
2022-09-25T02:48:21.853Z,16.95
2022-09-25T02:51:26.152Z,15.43
2022-09-25T02:54:11.374Z,16.00
2022-09-25T02:57:04.206Z,15.27
2022-09-25T02:59:38.140Z,15.38
2022-09-25T03:02:05.538Z,16.40
2022-09-25T03:04:38.178Z,16.17
2022-09-25T03:07:06.298Z,16.45
2022-09-25T03:09:36.767Z,16.10
2022-09-25T03:12:07.078Z,15.85
2022-09-25T03:17:04.821Z,15.82
2022-09-25T03:19:31.970Z,16.52
2022-09-25T03:21:59.036Z,15.45
2022-09-25T03:24:26.082Z,16.25
2022-09-25T03:26:56.352Z,16.13
2022-09-25T03:31:50.187Z,15.20
2022-09-25T03:34:18.998Z,16.30
2022-09-25T03:36:47.665Z,15.75
2022-09-25T03:39:20.759Z,17.30
2022-09-25T03:41:48.030Z,16.52
2022-09-25T03:44:15.169Z,18.00
2022-09-25T03:46:42.116Z,17.17
2022-09-25T03:49:10.620Z,16.73
2022-09-25T03:51:39.001Z,17.63
2022-09-25T03:54:06.119Z,16.23
2022-09-25T03:56:33.555Z,16.48
2022-09-25T03:59:00.684Z,15.45
2022-09-25T04:01:28.498Z,15.90
2022-09-25T04:03:55.904Z,16.55
2022-09-25T04:06:25.667Z,16.17
2022-09-25T04:08:53.417Z,17.10
2022-09-25T04:11:21.795Z,17.40
2022-09-25T04:13:48.741Z,15.77
2022-09-25T04:16:17.080Z,17.52
2022-09-25T04:18:44.439Z,14.77
2022-09-25T04:21:14.102Z,17.25
2022-09-25T04:23:41.480Z,17.90
2022-09-25T04:26:09.622Z,16.95
2022-09-25T04:28:36.959Z,19.08
2022-09-25T04:31:04.427Z,17.42
2022-09-25T04:33:47.532Z,18.10
2022-09-25T04:36:19.161Z,16.85
2022-09-25T04:38:48.031Z,18.02
2022-09-25T04:41:16.676Z,17.92
2022-09-25T04:43:43.823Z,17.92
2022-09-25T04:46:18.298Z,18.35
2022-09-25T04:48:47.321Z,17.75
2022-09-25T04:51:14.253Z,18.80
2022-09-25T04:53:41.542Z,18.52
2022-09-25T04:56:14.646Z,19.55
2022-09-25T04:58:51.285Z,18.58
2022-09-25T05:01:20.668Z,18.17
2022-09-25T05:03:54.045Z,17.50
2022-09-25T05:06:22.792Z,17.27
2022-09-25T05:08:50.293Z,16.83
2022-09-25T05:11:17.280Z,18.23
2022-09-25T05:13:46.484Z,16.88
2022-09-25T05:16:13.648Z,17.27
2022-09-25T05:18:40.561Z,17.30
2022-09-25T05:21:07.539Z,16.85
2022-09-25T05:23:34.470Z,17.25
2022-09-25T05:26:02.663Z,17.15
2022-09-25T05:28:33.129Z,18.27
2022-09-25T05:33:32.123Z,16.42
2022-09-25T05:36:03.563Z,16.05
2022-09-25T05:38:33.184Z,16.75
2022-09-25T05:41:05.078Z,18.50
2022-09-25T05:43:33.056Z,15.93
2022-09-25T05:46:00.375Z,17.48
2022-09-25T05:48:27.417Z,16.80
2022-09-25T05:50:56.526Z,16.38
2022-09-25T05:53:24.620Z,16.90
2022-09-25T05:55:59.520Z,16.48
2022-09-25T05:58:27.892Z,16.83
2022-09-25T06:00:55.354Z,17.45
2022-09-25T06:03:22.644Z,17.15
2022-09-25T06:05:49.674Z,18.33
2022-09-25T06:08:16.607Z,17.85
2022-09-25T06:10:43.974Z,17.05
2022-09-25T06:13:10.854Z,17.50
2022-09-25T06:15:40.389Z,17.00
2022-09-25T06:18:09.210Z,17.33
2022-09-25T06:20:36.734Z,16.50
2022-09-25T06:23:03.716Z,17.70
2022-09-25T06:25:36.552Z,18.10
2022-09-25T06:28:03.887Z,17.73
2022-09-25T06:30:35.903Z,16.13
2022-09-25T06:33:09.881Z,15.85
2022-09-25T06:35:44.721Z,15.23
2022-09-25T06:38:12.780Z,15.52
2022-09-25T06:40:41.377Z,14.70
2022-09-25T06:43:13.739Z,15.88
2022-09-25T06:45:41.399Z,14.70
2022-09-25T06:48:13.772Z,14.88
2022-09-25T06:50:43.350Z,18.17
2022-09-25T06:53:14.061Z,16.17
2022-09-25T06:55:41.152Z,15.40
2022-09-25T06:58:10.521Z,15.15
2022-09-25T07:00:37.489Z,14.50
2022-09-25T07:03:23.032Z,14.45
2022-09-25T07:05:50.185Z,13.55
2022-09-25T07:08:19.840Z,13.52
2022-09-25T07:10:58.288Z,12.93
2022-09-25T07:13:28.781Z,13.95
2022-09-25T07:16:01.085Z,15.27
2022-09-25T07:18:29.179Z,12.80
2022-09-25T07:21:04.161Z,13.15
2022-09-25T07:23:31.393Z,12.93
2022-09-25T07:26:05.922Z,12.65
2022-09-25T07:28:33.487Z,12.50
2022-09-25T07:31:09.579Z,11.30
2022-09-25T07:33:36.625Z,10.32
2022-09-25T07:36:03.601Z,12.10
2022-09-25T07:38:30.473Z,13.43
2022-09-25T07:40:58.102Z,12.32
2022-09-25T07:43:25.030Z,11.80
2022-09-25T07:45:55.064Z,12.57
2022-09-25T07:48:23.213Z,13.85
2022-09-25T07:50:50.981Z,13.88
2022-09-25T07:53:18.780Z,13.35
2022-09-25T07:55:46.809Z,12.43
2022-09-25T07:58:14.683Z,13.25
2022-09-25T08:00:41.852Z,12.40
2022-09-25T08:03:11.397Z,12.70
2022-09-25T08:05:38.534Z,10.82
2022-09-25T08:08:05.416Z,10.45
2022-09-25T08:10:32.507Z,10.32
2022-09-25T08:13:00.242Z,11.00
2022-09-25T08:15:27.233Z,10.15
2022-09-25T08:17:55.068Z,10.55
2022-09-25T08:20:22.376Z,11.13
2022-09-25T08:22:52.917Z,9.82
2022-09-25T08:25:19.799Z,10.60
2022-09-25T08:27:47.101Z,10.20
2022-09-25T08:30:14.099Z,8.90
2022-09-25T08:32:41.015Z,8.75
2022-09-25T08:35:08.292Z,8.23
2022-09-25T08:37:35.200Z,8.25
2022-09-25T08:40:02.220Z,8.32
2022-09-25T08:42:34.988Z,8.25
2022-09-25T08:45:25.555Z,8.00
2022-09-25T08:48:14.836Z,8.30
2022-09-25T08:50:42.425Z,7.63
2022-09-25T08:53:26.434Z,7.65
2022-09-25T08:56:12.580Z,7.53
2022-09-25T08:58:52.701Z,6.53
2022-09-25T09:01:29.086Z,6.47
2022-09-25T09:04:12.882Z,6.68
2022-09-25T09:06:42.276Z,7.15
2022-09-25T09:09:24.028Z,7.43
2022-09-25T09:11:57.877Z,6.60
2022-09-25T09:14:29.410Z,7.28
2022-09-25T09:17:00.388Z,6.68
2022-09-25T09:19:27.755Z,7.28
2022-09-25T09:22:03.387Z,6.85
2022-09-25T09:24:54.429Z,6.97
2022-09-25T09:27:42.712Z,6.22
2022-09-25T09:30:16.665Z,6.75
2022-09-25T09:33:14.008Z,6.28
2022-09-25T09:35:59.836Z,6.57
2022-09-25T09:38:37.075Z,6.22
2022-09-25T09:41:14.927Z,6.70
2022-09-25T09:43:57.351Z,6.72
2022-09-25T09:46:59.105Z,5.90
2022-09-25T09:49:36.805Z,5.55
2022-09-25T09:52:13.023Z,6.13
2022-09-25T09:55:16.733Z,6.18
2022-09-25T09:57:53.407Z,5.63
2022-09-25T10:00:23.018Z,5.85
2022-09-25T10:03:18.786Z,5.53
2022-09-25T10:05:53.324Z,5.03
2022-09-25T10:08:20.255Z,5.25
2022-09-25T10:10:55.783Z,5.65
2022-09-25T10:13:32.805Z,5.25
2022-09-25T10:16:16.875Z,6.00
2022-09-25T10:18:46.685Z,5.63
2022-09-25T10:21:18.570Z,5.65
2022-09-25T10:23:50.055Z,5.68
2022-09-25T10:26:36.907Z,5.72
2022-09-25T10:29:24.027Z,5.82
2022-09-25T10:32:04.537Z,5.65
2022-09-25T10:34:32.083Z,5.32
2022-09-25T10:37:13.176Z,5.82
2022-09-25T10:39:45.513Z,5.75
2022-09-25T10:43:09.827Z,5.00
2022-09-25T10:45:37.220Z,5.28
2022-09-25T10:48:48.162Z,5.35
2022-09-25T10:51:18.360Z,5.10
2022-09-25T10:56:31.102Z,4.95
2022-09-25T10:59:01.793Z,4.50
2022-09-25T11:01:38.333Z,5.68
2022-09-25T11:04:28.345Z,5.55
2022-09-25T11:07:07.751Z,4.78
2022-09-25T11:09:36.806Z,4.82
2022-09-25T11:12:23.609Z,4.95
2022-09-25T11:14:58.426Z,5.20
2022-09-25T11:17:42.169Z,5.47
2022-09-25T11:20:12.639Z,4.53
2022-09-25T11:25:14.783Z,4.97
2022-09-25T11:28:01.111Z,4.50
2022-09-25T11:30:39.326Z,4.88
2022-09-25T11:33:29.617Z,4.63
2022-09-25T11:35:59.010Z,4.20
2022-09-25T11:38:50.024Z,3.97
2022-09-25T11:41:45.407Z,4.57
2022-09-25T11:44:32.845Z,4.15
2022-09-25T11:47:29.221Z,4.03
2022-09-25T11:49:58.805Z,3.72
2022-09-25T11:52:37.475Z,4.60
2022-09-25T11:55:15.413Z,4.97
2022-09-25T11:58:02.054Z,3.53
2022-09-25T12:00:29.327Z,3.60
2022-09-25T12:03:46.639Z,3.40
2022-09-25T12:06:40.598Z,3.88
2022-09-25T12:09:08.326Z,3.70
2022-09-25T12:11:52.950Z,3.75
2022-09-25T12:14:20.192Z,3.60
2022-09-25T12:17:00.764Z,2.78
2022-09-25T12:19:36.818Z,3.38
2022-09-25T12:22:13.863Z,3.63
2022-09-25T12:24:41.167Z,4.32
2022-09-25T12:27:08.493Z,3.25
2022-09-25T12:29:50.649Z,2.30
2022-09-25T12:32:18.485Z,2.17
2022-09-25T12:34:50.830Z,3.35
2022-09-25T12:37:26.708Z,2.03
2022-09-25T12:40:03.777Z,2.40
2022-09-25T12:42:40.711Z,2.60
2022-09-25T12:45:31.634Z,2.40
2022-09-25T12:47:59.056Z,2.70
2022-09-25T12:50:29.030Z,2.45
2022-09-25T12:52:57.478Z,2.28
2022-09-25T12:55:32.821Z,2.10
2022-09-25T12:58:03.078Z,2.08
2022-09-25T13:03:22.300Z,1.63
2022-09-25T13:06:10.124Z,2.22
2022-09-25T13:08:44.376Z,1.80
2022-09-25T13:11:15.304Z,1.95
2022-09-25T13:13:45.605Z,2.08
2022-09-25T13:18:50.616Z,1.80
2022-09-25T13:21:35.830Z,2.63
2022-09-25T13:24:10.192Z,1.83
2022-09-25T13:26:53.610Z,1.90
2022-09-25T13:29:23.306Z,2.40
2022-09-25T13:31:51.166Z,2.03
2022-09-25T13:34:21.809Z,1.90
2022-09-25T13:36:56.613Z,1.50
2022-09-25T13:39:45.162Z,1.60
2022-09-25T13:42:22.495Z,1.55
2022-09-25T13:44:51.122Z,1.33
2022-09-25T13:47:38.238Z,1.80
2022-09-25T13:50:06.517Z,1.40
2022-09-25T13:52:37.035Z,1.35
2022-09-25T13:55:19.492Z,1.52
2022-09-25T13:57:56.238Z,1.38
2022-09-25T14:00:28.120Z,1.77
2022-09-25T14:03:02.885Z,1.85
2022-09-25T14:05:36.248Z,1.60
2022-09-25T14:08:11.583Z,1.30
2022-09-25T14:10:44.370Z,1.67
2022-09-25T14:13:15.568Z,1.85
2022-09-25T14:15:43.536Z,1.40
2022-09-25T14:18:20.831Z,1.25
2022-09-25T14:20:50.249Z,1.38
2022-09-25T14:23:26.161Z,1.67
2022-09-25T14:26:00.702Z,0.90
2022-09-25T14:28:30.123Z,1.42
2022-09-25T14:31:16.292Z,1.63
2022-09-25T14:34:01.940Z,1.70
2022-09-25T14:36:54.271Z,1.23
2022-09-25T14:39:40.214Z,1.40
2022-09-25T14:42:26.282Z,1.20
2022-09-25T14:45:13.923Z,1.10
2022-09-25T14:47:43.590Z,1.45
2022-09-25T14:50:18.714Z,1.27
2022-09-25T14:52:46.060Z,1.30
2022-09-25T14:55:16.841Z,1.52
2022-09-25T14:57:44.154Z,1.50
2022-09-25T15:00:16.383Z,1.42
2022-09-25T15:02:46.915Z,0.95
2022-09-25T15:05:33.612Z,1.60
2022-09-25T15:08:02.568Z,1.90
2022-09-25T15:10:38.552Z,1.30
2022-09-25T15:13:09.794Z,1.10
2022-09-25T15:15:38.611Z,1.23
2022-09-25T15:18:13.509Z,0.98
2022-09-25T15:20:47.460Z,1.33
2022-09-25T15:23:17.486Z,1.85
2022-09-25T15:25:49.054Z,1.42
2022-09-25T15:28:18.101Z,2.05
2022-09-25T15:30:47.320Z,1.80
2022-09-25T15:33:40.706Z,1.42
2022-09-25T15:36:11.224Z,1.42
2022-09-25T15:38:39.215Z,1.50
2022-09-25T15:41:09.621Z,1.40
2022-09-25T15:43:36.884Z,1.55
2022-09-25T15:46:04.275Z,1.75
2022-09-25T15:48:36.557Z,1.35
2022-09-25T15:51:07.140Z,1.20
2022-09-25T15:53:45.062Z,2.85
2022-09-25T15:56:12.551Z,1.20
2022-09-25T15:58:47.119Z,1.50
2022-09-25T16:01:34.055Z,1.45
2022-09-25T16:04:20.683Z,1.30
2022-09-25T16:06:50.018Z,1.30
2022-09-25T16:09:35.728Z,1.65
2022-09-25T16:12:32.531Z,1.40
2022-09-25T16:15:00.026Z,1.70
2022-09-25T16:17:40.660Z,1.65
2022-09-25T16:20:29.865Z,1.30
2022-09-25T16:23:04.621Z,1.70
2022-09-25T16:25:36.200Z,1.80
2022-09-25T16:28:03.551Z,1.50
2022-09-25T16:30:31.413Z,1.20
2022-09-25T16:33:05.139Z,1.58
2022-09-25T16:36:05.375Z,2.00
2022-09-25T16:38:38.450Z,1.10
2022-09-25T16:41:07.126Z,1.08
2022-09-25T16:43:35.542Z,1.40
2022-09-25T16:46:12.108Z,1.70
2022-09-25T16:48:40.876Z,1.48
2022-09-25T16:51:26.966Z,1.52
2022-09-25T16:53:56.962Z,1.15
2022-09-25T16:56:26.082Z,1.40
2022-09-25T16:58:54.105Z,1.00
2022-09-25T17:01:22.526Z,1.17
2022-09-25T17:03:50.027Z,1.30
2022-09-25T17:06:18.001Z,1.02
2022-09-25T17:08:45.268Z,1.00
2022-09-25T17:11:13.406Z,1.00
2022-09-25T17:13:41.053Z,1.20
2022-09-25T17:16:08.451Z,1.17
2022-09-25T17:18:36.040Z,1.70
2022-09-25T17:21:04.690Z,1.30
2022-09-25T17:23:32.035Z,1.17
2022-09-25T17:26:17.630Z,1.30
2022-09-25T17:28:44.995Z,1.73
2022-09-25T17:31:13.826Z,2.00
2022-09-25T17:33:41.797Z,1.70
2022-09-25T17:36:11.491Z,1.20
2022-09-25T17:38:38.970Z,1.05
2022-09-25T17:41:18.528Z,1.48
2022-09-25T17:43:46.252Z,1.47
2022-09-25T17:46:19.315Z,1.83
2022-09-25T17:48:51.638Z,1.95
2022-09-25T17:51:22.732Z,1.90
2022-09-25T17:53:50.202Z,1.90
2022-09-25T17:56:17.694Z,1.60
2022-09-25T17:58:45.487Z,2.17
2022-09-25T18:01:21.834Z,3.00
2022-09-25T18:03:49.925Z,3.25
2022-09-25T18:06:17.514Z,2.10
2022-09-25T18:08:45.282Z,2.05
2022-09-25T18:11:13.734Z,2.05
2022-09-25T18:13:42.081Z,1.98
2022-09-25T18:16:17.882Z,2.63
2022-09-25T18:19:04.409Z,2.33
2022-09-25T18:21:50.732Z,2.72
2022-09-25T18:24:18.482Z,5.78
2022-09-25T18:26:46.372Z,5.30
2022-09-25T18:29:15.640Z,4.00
2022-09-25T18:31:43.394Z,3.70
2022-09-25T18:34:10.953Z,2.90
2022-09-25T18:36:38.497Z,2.60
2022-09-25T18:39:06.110Z,2.47
2022-09-25T18:41:36.739Z,2.22
2022-09-25T18:44:07.017Z,2.15
2022-09-25T18:49:06.466Z,2.53
2022-09-25T18:51:34.312Z,2.55
2022-09-25T18:54:02.175Z,3.30
2022-09-25T18:56:29.906Z,3.35
2022-09-25T18:58:57.270Z,2.30
2022-09-25T19:01:24.834Z,2.20
2022-09-25T19:03:53.086Z,2.45
2022-09-25T19:06:21.112Z,3.60
2022-09-25T19:08:53.061Z,1.80
2022-09-25T19:11:20.639Z,1.92
2022-09-25T19:13:49.627Z,2.38
2022-09-25T19:16:18.045Z,1.75
2022-09-25T19:18:45.514Z,1.67
2022-09-25T19:21:15.260Z,2.15
2022-09-25T19:23:43.250Z,2.10
2022-09-25T19:26:14.927Z,2.10
2022-09-25T19:28:42.497Z,2.40
2022-09-25T19:31:14.754Z,1.90
2022-09-25T19:33:42.297Z,2.53
2022-09-25T19:36:13.844Z,3.35
2022-09-25T19:38:41.400Z,3.08
2022-09-25T19:41:15.911Z,2.95
2022-09-25T19:43:43.713Z,2.90
2022-09-25T19:46:14.692Z,2.40
2022-09-25T19:48:43.694Z,2.15
2022-09-25T19:51:11.503Z,1.70
2022-09-25T19:53:40.479Z,1.58
2022-09-25T19:56:08.257Z,1.70
2022-09-25T19:58:38.305Z,2.28
2022-09-25T20:01:17.255Z,1.92
2022-09-25T20:03:44.629Z,2.10
2022-09-25T20:06:12.463Z,1.90
2022-09-25T20:08:40.012Z,2.10
2022-09-25T20:11:23.638Z,2.13
2022-09-25T20:13:51.843Z,2.20
2022-09-25T20:16:21.763Z,2.17
2022-09-25T20:18:50.169Z,2.35
2022-09-25T20:21:21.166Z,2.10
2022-09-25T20:23:52.270Z,2.70
2022-09-25T20:26:19.756Z,2.80
2022-09-25T20:28:47.493Z,2.35
2022-09-25T20:31:16.109Z,2.88
2022-09-25T20:33:43.719Z,2.30
2022-09-25T20:36:14.714Z,2.40
2022-09-25T20:38:42.124Z,2.03
2022-09-25T20:41:13.964Z,2.20
2022-09-25T20:43:41.548Z,2.63
2022-09-25T20:46:10.305Z,2.47
2022-09-25T20:48:39.425Z,2.67
2022-09-25T20:51:11.680Z,3.63
2022-09-25T20:53:39.531Z,3.08
2022-09-25T20:56:11.710Z,3.83
2022-09-25T20:58:39.960Z,3.90
2022-09-25T21:01:08.895Z,3.63
2022-09-25T21:03:37.587Z,3.30
2022-09-25T21:06:08.833Z,3.28
2022-09-25T21:08:36.420Z,2.60
2022-09-25T21:11:03.700Z,3.03
2022-09-25T21:13:31.930Z,3.40
2022-09-25T21:16:13.212Z,3.53
2022-09-25T21:18:41.311Z,2.65
2022-09-25T21:21:10.978Z,3.53
2022-09-25T21:23:38.499Z,3.00
2022-09-25T21:26:07.106Z,3.40
2022-09-25T21:28:34.449Z,2.63
2022-09-25T21:31:06.141Z,3.03
2022-09-25T21:33:33.899Z,3.13
2022-09-25T21:36:01.476Z,3.25
2022-09-25T21:38:28.789Z,3.80
2022-09-25T21:41:01.609Z,3.20
2022-09-25T21:43:31.275Z,2.60
2022-09-25T21:46:03.852Z,2.53
2022-09-25T21:48:31.200Z,2.97
2022-09-25T21:50:58.926Z,2.70
2022-09-25T21:53:26.506Z,3.00
2022-09-25T21:56:03.827Z,2.88
2022-09-25T21:58:31.336Z,2.42
2022-09-25T22:01:04.583Z,2.38
2022-09-25T22:03:33.972Z,2.53
2022-09-25T22:06:02.928Z,2.63
2022-09-25T22:08:30.874Z,2.85
2022-09-25T22:10:58.845Z,2.35
2022-09-25T22:13:27.063Z,2.40
2022-09-25T22:16:01.094Z,2.45
2022-09-25T22:18:29.117Z,2.42
2022-09-25T22:20:56.598Z,2.25
2022-09-25T22:23:24.573Z,2.80
2022-09-25T22:25:52.653Z,2.15
2022-09-25T22:28:20.539Z,2.53
2022-09-25T22:30:47.954Z,2.55
2022-09-25T22:33:15.414Z,3.00
2022-09-25T22:35:42.715Z,2.38
2022-09-25T22:38:10.016Z,2.42
2022-09-25T22:40:40.540Z,2.20
2022-09-25T22:43:07.944Z,1.90
2022-09-25T22:45:35.245Z,2.30
2022-09-25T22:48:02.754Z,1.50
2022-09-25T22:50:30.051Z,1.90
2022-09-25T22:52:58.529Z,1.58
2022-09-25T22:55:26.298Z,1.83
2022-09-25T22:57:53.661Z,1.73
2022-09-25T23:00:20.960Z,1.83
2022-09-25T23:02:48.268Z,1.88
2022-09-25T23:05:15.804Z,2.08
2022-09-25T23:07:43.181Z,1.88
2022-09-25T23:10:10.509Z,1.80
2022-09-25T23:12:37.820Z,1.75
2022-09-25T23:15:05.319Z,1.52
2022-09-25T23:17:32.651Z,1.50
2022-09-25T23:19:59.984Z,2.28
2022-09-25T23:22:27.721Z,1.40
2022-09-25T23:24:54.999Z,1.92
2022-09-25T23:27:22.269Z,1.60
2022-09-25T23:29:49.559Z,1.92
2022-09-25T23:32:16.876Z,2.25
2022-09-25T23:34:44.205Z,2.03
2022-09-25T23:37:13.651Z,1.98
2022-09-25T23:39:41.343Z,2.03
2022-09-25T23:42:08.648Z,2.03
2022-09-25T23:44:35.940Z,3.38
2022-09-25T23:47:03.266Z,1.98
2022-09-25T23:49:30.749Z,2.60
2022-09-25T23:51:58.019Z,2.05
2022-09-25T23:54:25.907Z,2.10
2022-09-25T23:56:53.251Z,2.20
2022-09-25T23:59:20.540Z,2.55
